Time;durP1;ratioP1;P1;durP2;ratioP2;P2;SDS_P1;SDS_P2;PMS_P1;PMS_P2;Temp;Humidity;BMP_temperature;BMP_pressure;BME280_temperature;BME280_humidity;BME280_pressure;Samples;Min_cycle;Max_cycle;Signal;HPM_P1;HPM_P2
2023/01/04 00:01:03;;;;;;;;;;;;;;;5.55;100.00;97972.34;5061707;28;19916;-69
2023/01/04 00:03:29;;;;;;;;;;;;;;;5.55;100.00;97949.81;5079699;28;19916;-71
2023/01/04 00:05:56;;;;;;;;;;;;;;;5.42;100.00;97945.19;5080833;28;19916;-71
2023/01/04 00:08:22;;;;;;;;;;;;;;;5.23;100.00;97937.13;5076665;28;19963;-69
2023/01/04 00:10:47;;;;;;;;;;;;;;;5.15;100.00;97935.94;5081772;28;19955;-70
2023/01/04 00:13:12;;;;;;;;;;;;;;;5.25;100.00;97948.50;5061348;28;19971;-70
2023/01/04 00:15:37;;;;;;;;;;;;;;;5.21;100.00;97942.06;5060700;28;19921;-71
2023/01/04 00:18:03;;;;;;;;;;;;;;;5.19;100.00;97947.81;5062735;28;19924;-69
2023/01/04 00:20:28;;;;;;;;;;;;;;;5.31;100.00;97945.41;5072527;28;19916;-70
2023/01/04 00:22:53;;;;;;;;;;;;;;;5.46;100.00;97951.63;5088015;28;20312;-69
2023/01/04 00:25:19;;;;;;;;;;;;;;;5.54;100.00;97948.19;5089253;28;19970;-70
2023/01/04 00:27:44;;;;;;;;;;;;;;;5.60;100.00;97951.59;5080784;28;19917;-70
2023/01/04 00:30:09;;;;;;;;;;;;;;;5.66;100.00;97958.56;5075861;28;20078;-71
2023/01/04 00:32:35;;;;;;;;;;;;;;;5.70;100.00;97945.97;5080922;28;19920;-69
2023/01/04 00:35:00;;;;;;;;;;;;;;;5.70;100.00;97944.03;5081354;28;20326;-70
2023/01/04 00:37:25;;;;;;;;;;;;;;;5.66;100.00;97934.09;5076282;28;19916;-70
2023/01/04 00:39:51;;;;;;;;;;;;;;;5.57;100.00;97928.56;5082177;28;19916;-71
2023/01/04 00:42:16;;;;;;;;;;;;;;;5.13;100.00;97936.22;5077503;28;20373;-75
2023/01/04 00:44:41;;;;;;;;;;;;;;;5.16;100.00;97932.09;5086399;28;20387;-70
2023/01/04 00:47:07;;;;;;;;;;;;;;;5.28;100.00;97937.03;5079918;28;19916;-71
2023/01/04 00:49:32;;;;;;;;;;;;;;;5.35;100.00;97930.09;5084330;28;19970;-70
2023/01/04 00:51:58;;;;;;;;;;;;;;;5.48;100.00;97935.84;5084432;28;20036;-71
2023/01/04 00:54:23;;;;;;;;;;;;;;;5.52;100.00;97929.47;5079086;28;20138;-71
2023/01/04 00:56:48;;;;;;;;;;;;;;;5.50;100.00;97928.97;5083774;28;19920;-69
2023/01/04 00:59:15;;;;;;;;;;;;;;;5.56;100.00;97926.94;5081039;28;20005;-70
2023/01/04 01:01:41;;;;;;;;;;;;;;;5.63;100.00;97916.47;5086108;28;19942;-71
2023/01/04 01:04:06;;;;;;;;;;;;;;;5.62;100.00;97923.03;5062041;28;20372;-70
2023/01/04 01:06:32;;;;;;;;;;;;;;;5.50;100.00;97923.53;5083991;28;19916;-71
2023/01/04 01:08:58;;;;;;;;;;;;;;;5.42;100.00;97926.97;5085229;28;19916;-70
2023/01/04 01:11:23;;;;;;;;;;;;;;;5.57;100.00;97939.44;5079479;28;19920;-70
2023/01/04 01:13:49;;;;;;;;;;;;;;;5.58;100.00;97935.59;5084309;28;19924;-70
2023/01/04 01:16:16;;;;;;;;;;;;;;;5.66;100.00;97934.09;5077503;28;19924;-71
2023/01/04 01:18:42;;;;;;;;;;;;;;;5.63;100.00;97943.66;5081144;28;20339;-71
2023/01/04 01:21:09;;;;;;;;;;;;;;;5.59;100.00;97941.88;5073507;28;19916;-69
2023/01/04 01:23:34;;;;;;;;;;;;;;;5.61;100.00;97940.44;5068833;28;19917;-72
2023/01/04 01:26:00;;;;;;;;;;;;;;;5.70;100.00;97943.25;5068811;28;20455;-71
2023/01/04 01:28:26;;;;;;;;;;;;;;;5.64;100.00;97939.84;5099544;28;19969;-71
2023/01/04 01:30:51;;;;;;;;;;;;;;;5.58;100.00;97940.25;5104264;28;19923;-70
2023/01/04 01:33:16;;;;;;;;;;;;;;;5.57;100.00;97947.59;5100046;28;20019;-71
2023/01/04 01:35:42;;;;;;;;;;;;;;;5.59;100.00;97941.88;5103442;28;19920;-69
2023/01/04 01:38:07;;;;;;;;;;;;;;;5.70;100.00;97949.50;5099181;28;19922;-69
2023/01/04 01:40:32;;;;;;;;;;;;;;;5.79;100.00;97944.13;5103836;28;19951;-71
2023/01/04 01:42:57;;;;;;;;;;;;;;;5.81;100.00;97943.84;5104261;28;20264;-70
2023/01/04 01:45:23;;;;;;;;;;;;;;;5.80;100.00;97944.94;5099297;28;20897;-71
2023/01/04 01:47:49;;;;;;;;;;;;;;;5.80;100.00;97950.38;5103846;28;19959;-71
2023/01/04 01:50:17;;;;;;;;;;;;;;;5.76;100.00;97955.63;5099137;28;20022;-72
2023/01/04 01:52:42;;;;;;;;;;;;;;;5.80;100.00;97947.66;5103351;28;19923;-71
2023/01/04 01:55:10;;;;;;;;;;;;;;;5.81;100.00;97949.28;5098125;28;19916;-71
2023/01/04 01:57:36;;;;;;;;;;;;;;;5.72;100.00;97962.78;5102993;28;20023;-70
2023/01/04 02:00:07;;;;;;;;;;;;;;;5.65;100.00;97962.38;5102847;28;19920;-71
2023/01/04 02:02:33;;;;;;;;;;;;;;;5.60;100.00;97951.59;5103576;28;19926;-71
2023/01/04 02:04:58;;;;;;;;;;;;;;;5.64;100.00;97948.00;5104150;28;19916;-71
2023/01/04 02:07:25;;;;;;;;;;;;;;;5.70;100.00;97944.03;5098081;28;19916;-71
2023/01/04 02:09:50;;;;;;;;;;;;;;;5.73;100.00;97953.53;5104191;28;19926;-71
2023/01/04 02:12:15;;;;;;;;;;;;;;;5.62;100.00;97947.50;5083221;28;19924;-71
2023/01/04 02:14:42;;;;;;;;;;;;;;;5.55;100.00;97955.25;5083421;28;19916;-71
2023/01/04 02:17:11;;;;;;;;;;;;;;;5.52;100.00;97953.13;5077739;28;19923;-70
2023/01/04 02:19:54;;;;;;;;;;;;;;;5.68;100.00;97946.28;5079802;28;19970;-70
2023/01/04 02:22:38;;;;;;;;;;;;;;;5.79;100.00;97948.78;5072576;28;19920;-71
2023/01/04 02:25:22;;;;;;;;;;;;;;;5.75;100.00;97943.94;5080248;28;20050;-69
2023/01/04 02:28:02;;;;;;;;;;;;;;;5.83;100.00;97936.19;5073208;28;19925;-71
2023/01/04 02:30:28;;;;;;;;;;;;;;;5.69;100.00;97933.47;5082795;28;19959;-70
2023/01/04 02:32:59;;;;;;;;;;;;;;;5.47;100.00;97940.44;5083522;28;20380;-70
2023/01/04 02:35:31;;;;;;;;;;;;;;;5.45;100.00;97939.94;5083385;28;19980;-69
2023/01/04 02:38:16;;;;;;;;;;;;;;;5.35;100.00;97937.44;5098141;28;19946;-70
2023/01/04 02:40:44;;;;;;;;;;;;;;;5.32;100.00;97938.84;5064117;28;19916;-72
2023/01/04 02:46:16;;;;;;;;;;;;;;;5.07;100.00;97939.34;5076972;28;19973;-70
2023/01/04 02:51:32;;;;;;;;;;;;;;;5.08;100.00;97938.25;5077555;28;19920;-69
2023/01/04 02:53:59;;;;;;;;;;;;;;;5.09;100.00;97934.41;5082722;28;19963;-71
2023/01/04 02:56:44;;;;;;;;;;;;;;;5.13;100.00;97933.50;5076401;28;19942;-69
2023/01/04 02:59:28;;;;;;;;;;;;;;;5.16;100.00;97942.97;5077572;28;19977;-71
2023/01/04 03:07:42;;;;;;;;;;;;;;;5.24;100.00;97917.00;5081504;28;19916;-69
2023/01/04 03:10:21;;;;;;;;;;;;;;;5.28;100.00;97924.25;5077560;28;19924;-69
2023/01/04 03:12:49;;;;;;;;;;;;;;;5.45;100.00;97936.44;5070189;28;19923;-71
2023/01/04 03:15:22;;;;;;;;;;;;;;;5.45;100.00;97936.44;5057500;28;19920;-69
2023/01/04 03:17:56;;;;;;;;;;;;;;;5.47;100.00;97931.50;5064096;28;19961;-70
2023/01/04 03:20:22;;;;;;;;;;;;;;;5.42;100.00;97935.13;5076649;28;20122;-72
2023/01/04 03:36:45;;;;;;;;;;;;;;;5.11;100.00;97937.63;5060634;28;20296;-71
2023/01/04 03:50:46;;;;;;;;;;;;;;;5.10;100.00;97925.16;5061344;28;20346;-71
2023/01/04 03:53:12;;;;;;;;;;;;;;;5.09;100.00;97913.47;5057030;28;19917;-71
2023/01/04 03:55:40;;;;;;;;;;;;;;;5.11;100.00;97913.19;5061611;28;19974;-71
2023/01/04 03:58:06;;;;;;;;;;;;;;;5.15;100.00;97897.91;5057108;28;19920;-69
2023/01/04 04:00:31;;;;;;;;;;;;;;;5.24;100.00;97889.84;5062602;28;19939;-70
2023/01/04 04:03:06;;;;;;;;;;;;;;;5.15;100.00;97881.63;5062103;28;19963;-70
2023/01/04 04:08:28;;;;;;;;;;;;;;;5.16;100.00;97873.16;5056891;28;20368;-71
2023/01/04 04:10:54;;;;;;;;;;;;;;;5.02;100.00;97874.25;5065006;28;19989;-69
2023/01/04 04:13:20;;;;;;;;;;;;;;;4.84;100.00;97878.66;5077903;28;20300;-71
2023/01/04 04:15:45;;;;;;;;;;;;;;;4.72;100.00;97884.59;5080948;28;19924;-72
2023/01/04 04:18:11;;;;;;;;;;;;;;;4.58;100.00;97884.56;5073327;28;19966;-71
2023/01/04 04:20:37;;;;;;;;;;;;;;;4.49;100.00;97883.66;5073997;28;19926;-71
2023/01/04 04:23:02;;;;;;;;;;;;;;;4.37;100.00;97881.38;5083034;28;19916;-71
2023/01/04 04:25:28;;;;;;;;;;;;;;;4.27;100.00;97886.97;5083499;28;19954;-71
2023/01/04 04:27:53;;;;;;;;;;;;;;;4.23;100.00;97886.75;5084736;28;19919;-70
2023/01/04 04:30:19;;;;;;;;;;;;;;;4.22;100.00;97888.66;5079852;28;20505;-71
2023/01/04 04:32:44;;;;;;;;;;;;;;;4.15;100.00;97884.75;5084863;28;19931;-70
2023/01/04 04:35:09;;;;;;;;;;;;;;;4.10;100.00;97884.81;5081103;28;20396;-70
2023/01/04 04:37:36;;;;;;;;;;;;;;;3.98;100.00;97885.25;5084332;28;19916;-70
2023/01/04 04:40:01;;;;;;;;;;;;;;;3.89;100.00;97890.56;5086351;28;20046;-71
2023/01/04 04:42:27;;;;;;;;;;;;;;;3.81;100.00;97894.72;5081462;28;20014;-71
2023/01/04 04:44:52;;;;;;;;;;;;;;;3.72;100.00;97888.34;5086443;28;19916;-71
2023/01/04 04:47:17;;;;;;;;;;;;;;;3.66;100.00;97892.22;5080353;28;19916;-70
2023/01/04 04:49:43;;;;;;;;;;;;;;;3.69;100.00;97888.13;5096363;28;19900;-71
2023/01/04 04:52:08;;;;;;;;;;;;;;;3.71;100.00;97892.16;5100096;28;20334;-70
2023/01/04 04:54:33;;;;;;;;;;;;;;;3.70;100.00;97889.75;5095647;28;19916;-72
2023/01/04 04:56:58;;;;;;;;;;;;;;;3.72;100.00;97888.34;5085442;28;19916;-70
2023/01/04 04:59:24;;;;;;;;;;;;;;;3.69;100.00;97891.66;5080620;28;20384;-70
2023/01/04 05:01:49;;;;;;;;;;;;;;;3.68;100.00;97905.50;5083432;28;19920;-70
2023/01/04 05:04:15;;;;;;;;;;;;;;;3.71;100.00;97894.88;5079078;28;20010;-69
2023/01/04 05:06:49;;;;;;;;;;;;;;;3.65;100.00;97898.75;5083247;28;20303;-70
2023/01/04 05:09:15;;;;;;;;;;;;;;;3.60;100.00;97901.50;5079376;28;19955;-71
2023/01/04 05:14:25;;;;;;;;;;;;;;;3.81;100.00;97883.88;5060062;28;20357;-71
2023/01/04 05:16:50;;;;;;;;;;;;;;;3.87;100.00;97886.50;5046079;28;19962;-70
2023/01/04 05:19:15;;;;;;;;;;;;;;;3.92;100.00;97891.88;5073693;28;20368;-71
2023/01/04 05:21:40;;;;;;;;;;;;;;;3.88;100.00;97890.84;5075680;28;19920;-69
2023/01/04 05:24:06;;;;;;;;;;;;;;;3.88;100.00;97894.34;5080403;28;19916;-70
2023/01/04 05:26:31;;;;;;;;;;;;;;;3.89;100.00;97895.97;5083927;28;19927;-70
2023/01/04 05:28:57;;;;;;;;;;;;;;;3.80;100.00;97879.56;5063093;28;19920;-70
2023/01/04 05:31:22;;;;;;;;;;;;;;;3.64;100.00;97886.31;5042225;28;19987;-71
2023/01/04 05:33:47;;;;;;;;;;;;;;;3.58;100.00;97893.69;5074986;28;19920;-72
2023/01/04 05:36:12;;;;;;;;;;;;;;;3.64;100.00;97884.38;5084510;28;20296;-71
2023/01/04 05:38:38;;;;;;;;;;;;;;;3.56;100.00;97889.66;5083415;28;19977;-71
2023/01/04 05:42:23;;;;;;;;;;;;;;;3.57;100.00;97886.66;5080341;28;19954;-69
2023/01/04 05:43:48;;;;;;;;;;;;;;;3.67;100.00;97877.56;5084319;28;19973;-71
2023/01/04 05:46:14;;;;;;;;;;;;;;;3.80;100.00;97878.78;5079035;28;19966;-71
2023/01/04 05:48:39;;;;;;;;;;;;;;;3.87;100.00;97881.09;5084495;28;19931;-71
2023/01/04 05:51:04;;;;;;;;;;;;;;;3.92;100.00;97879.09;5078203;28;19920;-69
2023/01/04 05:53:30;;;;;;;;;;;;;;;3.79;100.00;97875.22;5083390;28;19943;-71
2023/01/04 05:55:55;;;;;;;;;;;;;;;3.77;100.00;97887.47;5082687;28;19916;-71
2023/01/04 05:58:20;;;;;;;;;;;;;;;3.55;100.00;97891.56;5060208;28;20256;-72
2023/01/04 06:00:45;;;;;;;;;;;;;;;3.50;100.00;97894.34;5083659;28;19916;-70
2023/01/04 06:03:11;;;;;;;;;;;;;;;3.64;100.00;97891.72;5059617;28;19916;-70
2023/01/04 06:05:36;;;;;;;;;;;;;;;3.71;100.00;97885.91;5065929;28;20281;-71
2023/01/04 06:08:01;;;;;;;;;;;;;;;3.66;100.00;97896.84;5083686;28;19920;-71
2023/01/04 06:10:26;;;;;;;;;;;;;;;3.69;100.00;97890.84;5060774;28;19962;-71
2023/01/04 06:12:52;;;;;;;;;;;;;;;3.76;100.00;97889.38;5063774;28;19943;-72
2023/01/04 06:15:17;;;;;;;;;;;;;;;3.67;100.00;97891.13;5058508;28;19921;-70
2023/01/04 06:17:43;;;;;;;;;;;;;;;3.78;100.00;97889.06;5064555;28;19928;-71
2023/01/04 06:20:09;;;;;;;;;;;;;;;3.80;100.00;97890.41;5072306;28;19916;-71
2023/01/04 06:22:34;;;;;;;;;;;;;;;3.90;100.00;97886.72;5080867;28;19916;-70
2023/01/04 06:25:00;;;;;;;;;;;;;;;4.17;100.00;97888.75;5084241;28;20450;-71
2023/01/04 06:27:25;;;;;;;;;;;;;;;4.37;100.00;97878.69;5070621;28;19947;-71
2023/01/04 06:29:51;;;;;;;;;;;;;;;4.43;100.00;97887.53;5063147;28;20006;-72
2023/01/04 06:32:17;;;;;;;;;;;;;;;4.59;100.00;97878.84;5071495;28;19924;-70
2023/01/04 06:34:42;;;;;;;;;;;;;;;4.84;100.00;97890.31;5087578;28;19923;-70
2023/01/04 06:37:08;;;;;;;;;;;;;;;4.80;100.00;97889.31;5079750;28;19917;-71
2023/01/04 06:39:34;;;;;;;;;;;;;;;4.79;100.00;97895.88;5064913;28;20422;-70
2023/01/04 06:41:59;;;;;;;;;;;;;;;4.81;100.00;97888.22;5076005;28;20002;-69
2023/01/04 06:44:24;;;;;;;;;;;;;;;4.91;100.00;97879.88;5058246;28;19916;-69
2023/01/04 06:46:50;;;;;;;;;;;;;;;4.93;100.00;97888.53;5076253;28;19919;-70
2023/01/04 06:49:15;;;;;;;;;;;;;;;4.65;100.00;97890.41;5078892;28;19920;-70
2023/01/04 06:51:40;;;;;;;;;;;;;;;4.54;100.00;97900.63;5082870;28;19920;-69
2023/01/04 06:54:06;;;;;;;;;;;;;;;4.43;100.00;97888.34;5078222;28;19985;-69
2023/01/04 06:56:32;;;;;;;;;;;;;;;4.38;100.00;97891.16;5082419;28;20002;-70
2023/01/04 06:58:57;;;;;;;;;;;;;;;4.34;100.00;97890.09;5065051;28;19920;-70
2023/01/04 07:01:23;;;;;;;;;;;;;;;4.39;100.00;97899.00;5078098;28;20003;-71
2023/01/04 07:03:48;;;;;;;;;;;;;;;4.39;100.00;97895.44;5083860;28;19921;-69
2023/01/04 07:06:13;;;;;;;;;;;;;;;4.40;100.00;97894.38;5081468;28;19924;-71
2023/01/04 07:08:38;;;;;;;;;;;;;;;4.51;100.00;97890.38;5074222;28;19951;-70
2023/01/04 07:11:04;;;;;;;;;;;;;;;4.56;100.00;97886.78;5062007;28;20384;-71
2023/01/04 07:13:29;;;;;;;;;;;;;;;4.58;100.00;97898.94;5066141;28;19991;-70
2023/01/04 07:15:54;;;;;;;;;;;;;;;4.60;100.00;97902.16;5060762;28;20348;-71
2023/01/04 07:18:20;;;;;;;;;;;;;;;4.74;100.00;97899.47;5064098;28;19920;-71
2023/01/04 07:20:45;;;;;;;;;;;;;;;4.87;100.00;97886.22;5078669;28;20046;-71
2023/01/04 07:23:10;;;;;;;;;;;;;;;4.90;100.00;97886.44;5067097;28;19924;-70
2023/01/04 07:25:36;;;;;;;;;;;;;;;4.80;100.00;97897.47;5080969;28;19916;-70
2023/01/04 07:28:02;;;;;;;;;;;;;;;4.78;100.00;97896.97;5081565;28;19916;-70
2023/01/04 07:30:27;;;;;;;;;;;;;;;4.65;100.00;97897.75;5079972;28;20273;-71
2023/01/04 07:32:53;;;;;;;;;;;;;;;4.61;100.00;97897.53;5081557;28;19923;-70
2023/01/04 07:35:19;;;;;;;;;;;;;;;4.78;100.00;97897.75;5076923;28;19975;-70
2023/01/04 07:37:44;;;;;;;;;;;;;;;4.86;100.00;97892.75;5080956;28;19920;-71
2023/01/04 07:40:10;;;;;;;;;;;;;;;4.85;100.00;97894.66;5077953;28;20058;-70
2023/01/04 07:42:35;;;;;;;;;;;;;;;4.71;100.00;97897.34;5081832;28;20014;-70
2023/01/04 07:45:01;;;;;;;;;;;;;;;4.81;100.00;97893.66;5079014;28;19916;-71
2023/01/04 07:47:26;;;;;;;;;;;;;;;5.01;100.00;97889.75;5075883;28;19923;-69
2023/01/04 07:49:52;;;;;;;;;;;;;;;5.15;100.00;97892.47;5081018;28;19917;-71
2023/01/04 07:52:17;;;;;;;;;;;;;;;5.08;100.00;97895.59;5078088;28;19920;-71
2023/01/04 07:54:42;;;;;;;;;;;;;;;5.07;100.00;97895.88;5086502;28;20073;-70
2023/01/04 07:57:07;;;;;;;;;;;;;;;4.99;100.00;97900.13;5084616;28;20281;-69
2023/01/04 07:59:33;;;;;;;;;;;;;;;4.83;100.00;97898.78;5089273;28;19964;-70
2023/01/04 08:01:58;;;;;;;;;;;;;;;5.09;100.00;97897.19;5067646;28;19927;-69
2023/01/04 08:04:23;;;;;;;;;;;;;;;5.22;100.00;97908.34;5080904;28;20681;-70
2023/01/04 08:06:49;;;;;;;;;;;;;;;5.24;100.00;97900.69;5085247;28;19923;-69
2023/01/04 08:09:15;;;;;;;;;;;;;;;5.24;100.00;97896.09;5082583;28;20456;-69
2023/01/04 08:11:40;;;;;;;;;;;;;;;5.22;100.00;97897.50;5086535;28;20715;-70
2023/01/04 08:14:05;;;;;;;;;;;;;;;5.19;100.00;97904.34;5062249;28;19958;-69
2023/01/04 08:16:32;;;;;;;;;;;;;;;5.27;100.00;97900.91;5084824;28;19920;-69
2023/01/04 08:18:59;;;;;;;;;;;;;;;5.16;100.00;97904.94;5073135;28;19920;-69
2023/01/04 08:21:25;;;;;;;;;;;;;;;5.26;100.00;97904.75;5073359;28;20325;-70
2023/01/04 08:23:51;;;;;;;;;;;;;;;5.40;100.00;97909.34;5074207;28;19924;-70
2023/01/04 08:26:16;;;;;;;;;;;;;;;5.49;100.00;97913.78;5060091;28;20830;-70
2023/01/04 08:28:45;;;;;;;;;;;;;;;5.51;100.00;97910.75;5028877;28;20010;-70
2023/01/04 08:31:13;;;;;;;;;;;;;;;5.52;100.00;97907.72;5039074;28;20351;-70
2023/01/04 08:33:39;;;;;;;;;;;;;;;5.72;100.00;97911.13;5067020;28;19917;-71
2023/01/04 08:36:09;;;;;;;;;;;;;;;5.77;100.00;97911.03;5058648;28;19962;-68
2023/01/04 08:38:34;;;;;;;;;;;;;;;5.74;100.00;97917.88;5064834;28;19916;-70
2023/01/04 08:40:59;;;;;;;;;;;;;;;5.74;100.00;97909.72;5064742;28;19927;-71
2023/01/04 08:43:25;;;;;;;;;;;;;;;5.97;100.00;97915.22;5064268;28;19920;-71
2023/01/04 08:45:50;;;;;;;;;;;;;;;6.27;100.00;97910.22;5077392;28;20334;-71
2023/01/04 08:48:15;;;;;;;;;;;;;;;6.50;100.00;97905.56;5079963;28;19992;-71
2023/01/04 08:50:40;;;;;;;;;;;;;;;6.66;100.00;97914.13;5085094;28;19943;-69
2023/01/04 08:53:06;;;;;;;;;;;;;;;6.80;100.00;97912.13;5081099;28;19916;-68
2023/01/04 08:55:31;;;;;;;;;;;;;;;6.83;100.00;97899.81;5068708;28;19965;-71
2023/01/04 08:57:58;;;;;;;;;;;;;;;6.81;100.00;97902.84;5067951;28;19922;-70
2023/01/04 09:00:23;;;;;;;;;;;;;;;7.11;100.00;97899.63;5082131;28;20311;-71
2023/01/04 09:02:49;;;;;;;;;;;;;;;7.27;100.00;97901.63;5087324;28;20575;-70
2023/01/04 09:05:14;;;;;;;;;;;;;;;7.21;100.00;97905.59;5081551;28;19963;-71
2023/01/04 09:07:39;;;;;;;;;;;;;;;7.36;100.00;97911.75;5066502;28;20015;-70
2023/01/04 09:10:05;;;;;;;;;;;;;;;7.45;100.00;97909.84;5081583;28;19920;-71
2023/01/04 09:12:30;;;;;;;;;;;;;;;7.17;100.00;97906.56;5086151;28;19928;-71
2023/01/04 09:14:55;;;;;;;;;;;;;;;7.30;100.00;97899.38;5086565;28;20025;-71
2023/01/04 09:17:21;;;;;;;;;;;;;;;7.30;100.00;97913.00;5052221;28;20385;-71
2023/01/04 09:19:47;;;;;;;;;;;;;;;7.33;100.00;97905.00;5073007;28;19916;-70
2023/01/04 09:22:12;;;;;;;;;;;;;;;7.38;100.00;97907.59;5079026;28;20373;-69
2023/01/04 09:24:37;;;;;;;;;;;;;;;7.27;100.00;97900.81;5066837;28;19927;-71
2023/01/04 09:27:03;;;;;;;;;;;;;;;7.15;100.00;97900.59;5044433;28;19920;-71
2023/01/04 09:29:29;;;;;;;;;;;;;;;7.02;100.00;97897.69;5063223;28;19974;-71
2023/01/04 09:31:54;;;;;;;;;;;;;;;7.07;100.00;97889.34;5062913;28;19925;-70
2023/01/04 09:34:19;;;;;;;;;;;;;;;7.01;100.00;97893.34;5041314;28;19998;-69
2023/01/04 09:36:45;;;;;;;;;;;;;;;6.96;100.00;97893.47;5063190;28;19931;-69
2023/01/04 09:39:11;;;;;;;;;;;;;;;6.79;100.00;97896.94;5059539;28;19920;-71
2023/01/04 09:42:02;;;;;;;;;;;;;;;6.89;100.00;97893.91;5063808;28;19960;-70
2023/01/04 09:44:37;;;;;;;;;;;;;;;6.83;100.00;97888.94;5057492;28;20007;-69
2023/01/04 09:47:11;;;;;;;;;;;;;;;6.52;100.00;97897.91;5072915;28;19916;-70
2023/01/04 09:49:39;;;;;;;;;;;;;;;6.53;100.00;97899.47;5083702;28;20387;-71
2023/01/04 09:52:08;;;;;;;;;;;;;;;6.59;100.00;97902.88;5081137;28;19920;-68
2023/01/04 09:54:53;;;;;;;;;;;;;;;6.56;100.00;97901.59;5085511;28;19922;-72
2023/01/04 09:57:22;;;;;;;;;;;;;;;6.43;100.00;97900.56;5079468;28;19917;-71
2023/01/04 09:59:50;;;;;;;;;;;;;;;6.47;100.00;97898.03;5086307;28;20376;-69
2023/01/04 10:02:20;;;;;;;;;;;;;;;6.55;100.00;97893.72;5081062;28;19920;-71
2023/01/04 10:04:46;;;;;;;;;;;;;;;6.73;100.00;97887.25;5085190;28;19977;-70
2023/01/04 10:07:31;;;;;;;;;;;;;;;6.75;100.00;97886.97;5078655;28;19920;-71
2023/01/04 10:09:57;;;;;;;;;;;;;;;6.68;100.00;97876.50;5087347;28;19916;-69
2023/01/04 10:12:29;;;;;;;;;;;;;;;6.79;100.00;97872.41;5055174;28;20373;-69
2023/01/04 10:14:57;;;;;;;;;;;;;;;6.65;100.00;97869.78;5065097;28;19917;-70
2023/01/04 10:17:25;;;;;;;;;;;;;;;6.75;100.00;97871.41;5061046;28;19928;-69
2023/01/04 10:20:09;;;;;;;;;;;;;;;6.76;100.00;97862.16;5084603;28;19989;-70
2023/01/04 10:22:37;;;;;;;;;;;;;;;6.90;100.00;97864.78;5077825;28;19924;-77
2023/01/04 10:25:02;;;;;;;;;;;;;;;6.86;100.00;97855.59;5084826;28;19927;-69
2023/01/04 10:27:46;;;;;;;;;;;;;;;6.99;100.00;97857.44;5081236;28;19920;-71
2023/01/04 10:30:38;;;;;;;;;;;;;;;6.84;100.00;97847.78;5080296;28;19954;-69
2023/01/04 10:33:09;;;;;;;;;;;;;;;6.87;100.00;97851.78;5064933;28;19990;-69
2023/01/04 10:35:34;;;;;;;;;;;;;;;6.89;100.00;97855.78;5091299;28;20436;-70
2023/01/04 10:38:02;;;;;;;;;;;;;;;7.10;100.00;97840.81;5084549;28;20007;-70
2023/01/04 10:40:30;;;;;;;;;;;;;;;7.36;100.00;97830.75;5079005;28;19920;-70
2023/01/04 10:42:59;;;;;;;;;;;;;;;7.57;100.00;97835.63;5080211;28;20011;-70
2023/01/04 10:45:31;;;;;;;;;;;;;;;7.50;100.00;97833.38;5078811;28;20370;-71
2023/01/04 10:48:06;;;;;;;;;;;;;;;7.37;100.00;97831.59;5082787;28;20331;-70
2023/01/04 10:50:37;;;;;;;;;;;;;;;7.33;100.00;97825.97;5086922;28;20268;-69
2023/01/04 10:53:15;;;;;;;;;;;;;;;7.33;100.00;97825.97;5097508;28;19920;-70
2023/01/04 10:55:52;;;;;;;;;;;;;;;7.32;100.00;97829.81;5084855;28;19920;-72
2023/01/04 10:58:39;;;;;;;;;;;;;;;7.24;100.00;97825.94;5079122;28;20353;-71
2023/01/04 11:01:09;;;;;;;;;;;;;;;7.20;100.00;97816.00;5078175;28;19920;-70
2023/01/04 11:03:42;;;;;;;;;;;;;;;6.83;100.00;97820.84;5076762;28;19924;-71
2023/01/04 11:06:13;;;;;;;;;;;;;;;6.75;100.00;97816.16;5080766;28;19920;-71
2023/01/04 11:08:41;;;;;;;;;;;;;;;6.86;100.00;97818.31;5085226;28;19920;-71
2023/01/04 11:11:11;;;;;;;;;;;;;;;6.91;100.00;97805.66;5079239;28;19926;-72
2023/01/04 11:13:37;;;;;;;;;;;;;;;7.00;100.00;97801.84;5085130;28;19924;-72
2023/01/04 11:16:04;;;;;;;;;;;;;;;7.03;100.00;97790.31;5083123;28;19916;-70
2023/01/04 11:18:30;;;;;;;;;;;;;;;7.08;100.00;97792.91;5075865;28;19963;-72
2023/01/04 11:20:56;;;;;;;;;;;;;;;7.03;100.00;97795.75;5064934;28;19920;-71
2023/01/04 11:23:21;;;;;;;;;;;;;;;7.04;100.00;97797.38;5043366;28;20030;-74
2023/01/04 11:25:49;;;;;;;;;;;;;;;6.81;100.00;97796.66;5062856;28;20003;-73
2023/01/04 11:28:24;;;;;;;;;;;;;;;6.72;100.00;97814.06;5063046;28;19939;-72
2023/01/04 11:31:08;;;;;;;;;;;;;;;6.97;100.00;97805.22;5052014;28;19927;-72
2023/01/04 11:33:52;;;;;;;;;;;;;;;7.06;100.00;97802.50;5070236;28;19920;-71
2023/01/04 11:36:29;;;;;;;;;;;;;;;6.96;100.00;97800.88;5046327;28;20477;-71
2023/01/04 11:38:55;;;;;;;;;;;;;;;6.86;100.00;97796.53;5063513;28;19916;-73
2023/01/04 11:41:20;;;;;;;;;;;;;;;6.80;100.00;97788.81;5056827;28;20025;-73
2023/01/04 11:43:55;;;;;;;;;;;;;;;6.88;100.00;97788.03;5063325;28;19928;-71
2023/01/04 11:46:23;;;;;;;;;;;;;;;7.06;100.00;97786.16;5055758;28;19922;-72
2023/01/04 11:48:48;;;;;;;;;;;;;;;7.14;100.00;97774.47;5045180;28;19916;-71
2023/01/04 11:51:16;;;;;;;;;;;;;;;7.23;100.00;97780.72;5059513;28;19989;-70
2023/01/04 11:53:41;;;;;;;;;;;;;;;7.21;100.00;97768.56;5083458;28;19920;-70
2023/01/04 11:56:08;;;;;;;;;;;;;;;7.12;100.00;97771.25;5077463;28;19970;-70
2023/01/04 11:58:34;;;;;;;;;;;;;;;6.98;100.00;97760.50;5065525;28;19916;-73
2023/01/04 12:00:59;;;;;;;;;;;;;;;6.92;100.00;97766.41;5075752;28;19985;-72
2023/01/04 12:03:27;;;;;;;;;;;;;;;6.85;100.00;97766.88;5074342;28;20366;-71
2023/01/04 12:05:53;;;;;;;;;;;;;;;6.82;100.00;97765.56;5068687;28;20019;-71
2023/01/04 12:08:29;;;;;;;;;;;;;;;6.88;100.00;97769.78;5062944;28;19943;-72
2023/01/04 12:10:55;;;;;;;;;;;;;;;6.80;100.00;97756.91;5088841;28;20396;-71
2023/01/04 12:13:20;;;;;;;;;;;;;;;6.85;100.00;97756.78;5065794;28;19924;-72
2023/01/04 12:16:00;;;;;;;;;;;;;;;6.81;100.00;97753.09;5039924;28;20539;-72
2023/01/04 12:18:27;;;;;;;;;;;;;;;6.77;100.00;97749.41;5065519;28;20018;-72
2023/01/04 12:20:53;;;;;;;;;;;;;;;6.64;100.00;97744.84;5047082;28;19916;-72
2023/01/04 12:23:19;;;;;;;;;;;;;;;6.80;100.00;97746.03;5074008;28;19920;-70
2023/01/04 12:25:49;;;;;;;;;;;;;;;6.64;100.00;97745.66;5081976;28;19962;-70
2023/01/04 12:28:28;;;;;;;;;;;;;;;6.56;100.00;97745.66;5058399;28;19923;-71
2023/01/04 12:30:53;;;;;;;;;;;;;;;6.63;100.00;97740.53;5082284;28;20031;-70
2023/01/04 12:33:31;;;;;;;;;;;;;;;6.69;100.00;97733.84;5058854;28;20351;-72
2023/01/04 12:36:10;;;;;;;;;;;;;;;6.74;100.00;97730.19;5081625;28;19971;-72
2023/01/04 12:38:50;;;;;;;;;;;;;;;6.84;100.00;97721.69;5064078;28;20007;-71
2023/01/04 12:41:16;;;;;;;;;;;;;;;7.18;100.00;97720.94;5080719;28;19920;-71
2023/01/04 12:43:41;;;;;;;;;;;;;;;7.21;100.00;97712.13;5085575;28;19922;-71
2023/01/04 12:49:35;;;;;;;;;;;;;;;6.97;100.00;97709.06;5080956;28;20022;-70
2023/01/04 12:52:07;;;;;;;;;;;;;;;7.12;100.00;97694.19;5068119;28;19959;-71
2023/01/04 12:54:46;;;;;;;;;;;;;;;7.19;100.00;97697.25;5067551;28;20533;-72
2023/01/04 12:57:11;;;;;;;;;;;;;;;7.37;100.00;97701.56;5054251;28;19946;-72
2023/01/04 12:59:52;;;;;;;;;;;;;;;7.42;100.00;97697.88;5066436;28;19958;-72
2023/01/04 13:02:22;;;;;;;;;;;;;;;7.58;100.00;97690.81;5073586;28;19966;-71
2023/01/04 13:04:48;;;;;;;;;;;;;;;7.62;100.00;97689.03;5066731;28;20015;-71
2023/01/04 13:07:33;;;;;;;;;;;;;;;7.50;100.00;97690.81;5079458;28;20030;-72
2023/01/04 13:10:00;;;;;;;;;;;;;;;7.38;100.00;97689.56;5057104;28;19916;-70
2023/01/04 13:12:39;;;;;;;;;;;;;;;7.26;100.00;97692.13;5079635;28;19924;-71
2023/01/04 13:15:09;;;;;;;;;;;;;;;7.17;100.00;97688.59;5080218;28;19916;-70
2023/01/04 13:17:37;;;;;;;;;;;;;;;7.17;100.00;97674.97;5084050;28;20020;-72
2023/01/04 13:20:13;;;;;;;;;;;;;;;7.06;100.00;97677.22;5082743;28;20007;-71
2023/01/04 13:22:43;;;;;;;;;;;;;;;7.16;100.00;97670.63;5066155;28;19985;-72
2023/01/04 13:25:12;;;;;;;;;;;;;;;7.18;100.00;97679.28;5079520;28;19922;-70
2023/01/04 13:27:37;;;;;;;;;;;;;;;7.24;100.00;97678.00;5067051;28;19920;-70
2023/01/04 13:30:03;;;;;;;;;;;;;;;7.36;100.00;97680.06;5064077;28;19916;-70
2023/01/04 13:32:30;;;;;;;;;;;;;;;7.42;100.00;97673.34;5082374;28;19931;-71
2023/01/04 13:35:10;;;;;;;;;;;;;;;7.59;100.00;97670.59;5066821;28;20321;-70
2023/01/04 13:37:37;;;;;;;;;;;;;;;7.72;100.00;97674.25;5084283;28;19916;-72